Thousand Springs, Nevada
Current Conditions -  °F | °C
As of 2:35 AM on Thursday 29 Jan 2015 (Local Time) from KENV Reporting Station
Overcast Overcast  
Wind Chill:   Ceiling: 3600
Heat Index:   Visibility: 10mi
Dew Point: -1°   Wind: 3mph
Humidity: 75%   Direction: 220°SW
Pressure: 30.38"   Gusts: NA
Location:  41.0114°N, 114.57°W
Report Text: KENV 291035Z AUTO 22003KT 10SM OVC036 03/M01 A3038 RMK AO1
Loading
Personal Weather Stations






























Interactive Weather Map New forecast layout! Learn more

10-Day Weather Forecast

Advertisements
Track Severe Weather on mobile